createdAt,value
2019-06-08T00:00:55.521Z,99.90
2019-06-08T00:03:44.912Z,99.90
2019-06-08T00:06:35.389Z,99.90
2019-06-08T00:09:25.840Z,99.90
2019-06-08T00:12:16.878Z,99.90
2019-06-08T00:15:09.949Z,99.90
2019-06-08T00:17:59.620Z,99.90
2019-06-08T00:20:49.690Z,99.90
2019-06-08T00:23:39.919Z,99.90
2019-06-08T00:26:29.879Z,99.90
2019-06-08T00:29:20.505Z,99.90
2019-06-08T00:32:10.440Z,99.90
2019-06-08T00:35:00.559Z,99.90
2019-06-08T00:37:51.153Z,99.90
2019-06-08T00:40:42.335Z,99.90
2019-06-08T00:43:32.559Z,99.90
2019-06-08T00:46:23.627Z,99.90
2019-06-08T00:49:14.154Z,99.90
2019-06-08T00:52:03.696Z,99.90
2019-06-08T00:54:54.159Z,99.90
2019-06-08T00:57:44.514Z,99.90
2019-06-08T01:00:34.965Z,99.90
2019-06-08T01:03:25.810Z,99.90
2019-06-08T01:06:15.865Z,99.90
2019-06-08T01:09:07.280Z,99.90
2019-06-08T01:11:57.089Z,99.90
2019-06-08T01:14:46.923Z,99.90
2019-06-08T01:17:37.360Z,99.90
2019-06-08T01:20:27.655Z,99.90
2019-06-08T01:23:17.840Z,99.90
2019-06-08T01:26:07.184Z,99.90
2019-06-08T01:28:57.201Z,99.90
2019-06-08T01:31:47.280Z,99.90
2019-06-08T01:34:37.639Z,99.90
2019-06-08T01:37:29.062Z,99.90
2019-06-08T01:40:19.279Z,99.90
2019-06-08T01:43:09.864Z,99.90
2019-06-08T01:46:00.474Z,99.90
2019-06-08T01:48:50.200Z,99.90
2019-06-08T01:51:40.135Z,99.90
2019-06-08T01:54:31.544Z,99.90
2019-06-08T02:01:18.146Z,99.90
2019-06-08T02:04:08.712Z,99.90
2019-06-08T02:06:59.457Z,99.90
2019-06-08T02:09:49.512Z,99.90
2019-06-08T02:12:39.242Z,99.90
2019-06-08T02:15:31.797Z,99.90
2019-06-08T02:18:35.518Z,99.90
2019-06-08T02:21:13.462Z,99.90
2019-06-08T02:24:03.086Z,99.90
2019-06-08T02:26:53.309Z,99.90
2019-06-08T02:29:43.000Z,99.90
2019-06-08T02:32:35.009Z,99.90
2019-06-08T02:35:25.833Z,99.90
2019-06-08T02:38:17.356Z,99.90
2019-06-08T02:41:08.451Z,99.90
2019-06-08T02:43:58.799Z,99.90
2019-06-08T02:46:49.451Z,99.90
2019-06-08T02:49:39.878Z,99.90
2019-06-08T02:52:31.912Z,99.90
2019-06-08T02:55:23.308Z,99.90
2019-06-08T02:58:13.794Z,99.90
2019-06-08T03:01:05.053Z,99.90
2019-06-08T03:03:56.983Z,99.90
2019-06-08T03:06:48.400Z,99.90
2019-06-08T03:09:41.287Z,99.90
2019-06-08T03:12:32.967Z,99.90
2019-06-08T03:15:31.808Z,99.90
2019-06-08T03:18:22.156Z,99.90
2019-06-08T03:21:12.081Z,99.90
2019-06-08T03:24:02.446Z,99.90
2019-06-08T03:26:51.970Z,99.90
2019-06-08T03:29:43.850Z,99.90
2019-06-08T03:32:37.379Z,99.90
2019-06-08T03:35:25.512Z,99.90
2019-06-08T03:38:15.753Z,99.90
2019-06-08T03:41:05.998Z,99.90
2019-06-08T03:43:55.945Z,99.90
2019-06-08T03:46:46.481Z,99.90
2019-06-08T03:49:47.559Z,99.90
2019-06-08T03:52:29.437Z,99.90
2019-06-08T03:55:19.532Z,99.90
2019-06-08T03:58:10.534Z,99.90
2019-06-08T04:01:01.513Z,99.90
2019-06-08T04:03:51.883Z,99.90
2019-06-08T04:06:43.560Z,99.90
2019-06-08T04:09:33.342Z,99.90
2019-06-08T04:12:23.558Z,99.90
2019-06-08T04:15:13.589Z,99.90
2019-06-08T04:18:03.315Z,99.90
2019-06-08T04:20:53.835Z,99.90
2019-06-08T04:23:45.400Z,99.90
2019-06-08T04:26:38.473Z,99.90
2019-06-08T04:29:28.492Z,99.90
2019-06-08T04:32:18.718Z,99.90
2019-06-08T04:35:09.835Z,99.90
2019-06-08T04:37:59.782Z,99.90
2019-06-08T04:40:50.184Z,99.90
2019-06-08T04:43:42.842Z,99.90
2019-06-08T04:46:33.703Z,99.90
2019-06-08T04:49:23.713Z,99.90
2019-06-08T04:52:13.803Z,99.90
2019-06-08T04:55:03.473Z,99.90
2019-06-08T04:57:54.357Z,99.90
2019-06-08T05:00:46.212Z,99.90
2019-06-08T05:03:36.071Z,99.90
2019-06-08T05:06:26.422Z,99.90
2019-06-08T05:09:17.212Z,99.90
2019-06-08T05:12:08.072Z,99.90
2019-06-08T05:14:58.141Z,99.90
2019-06-08T05:17:47.707Z,99.90
2019-06-08T05:20:40.961Z,99.90
2019-06-08T05:23:29.242Z,99.90
2019-06-08T05:26:19.271Z,99.90
2019-06-08T05:29:09.411Z,99.90
2019-06-08T05:32:00.716Z,99.90
2019-06-08T05:34:50.966Z,99.90
2019-06-08T05:37:41.626Z,99.90
2019-06-08T05:40:31.720Z,99.90
2019-06-08T05:43:21.677Z,99.90
2019-06-08T05:46:12.105Z,99.90
2019-06-08T05:49:02.178Z,99.90
2019-06-08T05:51:52.392Z,99.90
2019-06-08T05:54:43.750Z,99.90
2019-06-08T05:57:34.056Z,99.90
2019-06-08T06:00:25.297Z,99.90
2019-06-08T06:03:15.129Z,99.90
2019-06-08T06:06:05.896Z,99.90
2019-06-08T06:08:55.825Z,99.90
2019-06-08T06:11:46.842Z,99.90
2019-06-08T06:14:37.055Z,99.90
2019-06-08T06:17:26.817Z,99.90
2019-06-08T06:20:17.086Z,99.90
2019-06-08T06:23:07.592Z,99.90
2019-06-08T06:25:57.457Z,99.90
2019-06-08T06:28:47.637Z,99.90
2019-06-08T06:31:37.694Z,99.90
2019-06-08T06:34:28.028Z,99.90
2019-06-08T06:37:18.597Z,99.90
2019-06-08T06:40:09.578Z,99.90
2019-06-08T06:42:59.918Z,99.90
2019-06-08T06:45:50.011Z,99.90
2019-06-08T06:48:40.559Z,99.90
2019-06-08T06:51:33.790Z,99.90
2019-06-08T06:54:22.332Z,99.90
2019-06-08T06:57:11.957Z,99.90
2019-06-08T07:00:02.001Z,99.90
2019-06-08T07:02:53.924Z,99.60
2019-06-08T07:05:43.779Z,99.90
2019-06-08T07:08:34.122Z,99.90
2019-06-08T07:11:24.232Z,99.60
2019-06-08T07:14:15.772Z,99.90
2019-06-08T07:17:06.312Z,98.90
2019-06-08T07:19:56.039Z,98.80
2019-06-08T07:22:46.071Z,99.30
2019-06-08T07:25:36.116Z,99.10
2019-06-08T07:28:26.178Z,98.10
2019-06-08T07:31:16.552Z,98.10
2019-06-08T07:34:06.351Z,98.10
2019-06-08T07:36:57.351Z,97.50
2019-06-08T07:39:48.869Z,97.00
2019-06-08T07:42:40.526Z,97.80
2019-06-08T07:45:30.312Z,97.90
2019-06-08T07:48:20.872Z,96.20
2019-06-08T07:51:11.257Z,96.20
2019-06-08T07:54:00.871Z,96.50
2019-06-08T07:56:51.509Z,96.50
2019-06-08T07:59:42.152Z,95.70
2019-06-08T08:02:32.704Z,95.90
2019-06-08T08:05:23.008Z,95.40
2019-06-08T08:08:13.512Z,95.20
2019-06-08T08:11:04.412Z,95.50
2019-06-08T08:13:54.859Z,94.30
2019-06-08T08:16:45.831Z,95.00
2019-06-08T08:19:36.712Z,94.80
2019-06-08T08:22:29.482Z,94.50
2019-06-08T08:25:19.126Z,94.00
2019-06-08T08:28:09.223Z,94.00
2019-06-08T08:31:01.781Z,93.50
2019-06-08T08:33:52.551Z,93.20
2019-06-08T08:36:44.326Z,92.20
2019-06-08T08:39:37.468Z,93.20
2019-06-08T08:42:27.097Z,92.70
2019-06-08T08:45:18.381Z,90.50
2019-06-08T08:48:21.467Z,90.40
2019-06-08T08:51:03.274Z,90.30
2019-06-08T08:53:55.848Z,89.30
2019-06-08T08:56:44.026Z,88.30
2019-06-08T08:59:35.117Z,89.10
2019-06-08T09:02:27.616Z,88.20
2019-06-08T09:05:18.109Z,88.60
2019-06-08T09:08:08.795Z,87.10
2019-06-08T09:11:01.985Z,85.40
2019-06-08T09:13:51.915Z,86.70
2019-06-08T09:16:42.069Z,84.90
2019-06-08T09:19:31.697Z,85.00
2019-06-08T09:22:21.218Z,84.60
2019-06-08T09:25:13.451Z,87.40
2019-06-08T09:28:04.794Z,83.30
2019-06-08T09:30:56.767Z,81.90
2019-06-08T09:33:53.405Z,82.80
2019-06-08T09:36:40.692Z,80.80
2019-06-08T09:39:32.543Z,78.80
2019-06-08T09:42:22.907Z,78.20
2019-06-08T09:45:13.038Z,73.20
2019-06-08T09:48:05.554Z,71.60
2019-06-08T09:50:55.146Z,68.50
2019-06-08T09:53:47.503Z,62.50
2019-06-08T09:56:37.956Z,62.90
2019-06-08T09:59:28.592Z,60.30
2019-06-08T10:02:18.947Z,58.40
2019-06-08T10:05:08.620Z,58.80
2019-06-08T10:08:02.123Z,54.00
2019-06-08T10:10:51.916Z,53.70
2019-06-08T10:13:43.414Z,53.30
2019-06-08T10:16:34.964Z,50.50
2019-06-08T10:19:24.883Z,49.40
2019-06-08T10:22:14.838Z,50.60
2019-06-08T10:25:08.063Z,49.20
2019-06-08T10:27:59.508Z,50.00
2019-06-08T10:30:48.485Z,50.50
2019-06-08T10:33:40.624Z,50.10
2019-06-08T10:36:30.814Z,50.80
2019-06-08T10:39:21.247Z,49.60
2019-06-08T10:42:11.515Z,49.00
2019-06-08T10:45:07.602Z,49.20
2019-06-08T10:47:53.037Z,48.80
2019-06-08T10:50:42.989Z,46.80
2019-06-08T10:53:46.449Z,47.30
2019-06-08T10:56:24.821Z,50.10
2019-06-08T10:59:14.505Z,53.40
2019-06-08T11:02:07.372Z,56.70
2019-06-08T11:04:58.779Z,58.00
2019-06-08T11:07:48.012Z,59.40
2019-06-08T11:10:38.497Z,60.30
2019-06-08T11:13:29.762Z,60.40
2019-06-08T11:16:19.919Z,61.80
2019-06-08T11:19:12.971Z,63.50
2019-06-08T11:22:05.018Z,63.80
2019-06-08T11:24:52.561Z,63.70
2019-06-08T11:27:42.413Z,64.50
2019-06-08T11:30:34.025Z,61.70
2019-06-08T11:33:24.714Z,62.70
2019-06-08T11:36:15.132Z,64.60
2019-06-08T11:39:06.807Z,64.30
2019-06-08T11:41:58.801Z,63.50
2019-06-08T11:44:51.025Z,63.50
2019-06-08T11:47:39.989Z,64.00
2019-06-08T11:50:42.191Z,63.40
2019-06-08T11:53:31.292Z,63.80
2019-06-08T11:56:23.592Z,66.80
2019-06-08T11:59:14.406Z,63.40
2019-06-08T12:02:09.024Z,66.10
2019-06-08T12:04:57.262Z,63.70
2019-06-08T12:07:48.126Z,64.20
2019-06-08T12:10:41.081Z,61.60
2019-06-08T12:13:29.357Z,63.70
2019-06-08T12:16:22.181Z,63.90
2019-06-08T12:19:15.114Z,62.30
2019-06-08T12:22:02.136Z,63.30
2019-06-08T12:24:52.552Z,60.50
2019-06-08T12:27:43.048Z,61.50
2019-06-08T12:30:32.913Z,65.60
2019-06-08T12:33:23.382Z,62.20
2019-06-08T12:36:15.364Z,61.30
2019-06-08T12:39:05.921Z,63.10
2019-06-08T12:41:58.196Z,62.40
2019-06-08T12:44:47.650Z,61.30
2019-06-08T12:47:38.327Z,59.40
2019-06-08T12:50:28.289Z,59.40
2019-06-08T12:53:22.632Z,62.60
2019-06-08T12:56:12.062Z,61.80
2019-06-08T12:59:04.083Z,63.50
2019-06-08T13:01:53.697Z,60.60
2019-06-08T13:04:43.806Z,60.60
2019-06-08T13:07:34.185Z,65.90
2019-06-08T13:10:24.408Z,63.80
2019-06-08T13:13:14.637Z,65.00
2019-06-08T13:16:04.537Z,61.90
2019-06-08T13:18:54.051Z,62.90
2019-06-08T13:21:43.712Z,62.50
2019-06-08T13:24:33.543Z,63.40
2019-06-08T13:27:23.357Z,60.30
2019-06-08T13:30:18.240Z,63.40
2019-06-08T13:33:07.923Z,62.60
2019-06-08T13:35:58.023Z,63.30
2019-06-08T13:38:48.035Z,62.10
2019-06-08T13:41:38.362Z,61.20
2019-06-08T13:44:28.382Z,63.20
2019-06-08T13:47:18.913Z,61.70
2019-06-08T13:50:11.101Z,59.90
2019-06-08T13:53:01.426Z,60.20
2019-06-08T13:55:56.499Z,60.60
2019-06-08T13:58:42.352Z,62.30
2019-06-08T14:01:31.897Z,60.50
2019-06-08T14:04:22.521Z,60.40
2019-06-08T14:07:12.366Z,60.30
2019-06-08T14:10:03.309Z,60.00
2019-06-08T14:12:52.875Z,61.20
2019-06-08T14:15:43.291Z,59.00
2019-06-08T14:18:34.281Z,60.80
2019-06-08T14:22:40.223Z,61.00
2019-06-08T14:25:46.611Z,60.60
2019-06-08T14:28:23.284Z,59.60
2019-06-08T14:31:14.390Z,60.00
2019-06-08T14:34:04.447Z,61.20
2019-06-08T14:36:54.792Z,59.00
2019-06-08T14:39:44.711Z,61.30
2019-06-08T14:42:34.953Z,59.70
2019-06-08T14:45:27.804Z,61.90
2019-06-08T14:48:18.957Z,62.90
2019-06-08T14:51:08.744Z,60.00
2019-06-08T14:53:59.211Z,61.50
2019-06-08T14:56:49.018Z,62.90
2019-06-08T14:59:40.317Z,62.10
2019-06-08T15:02:31.476Z,62.60
2019-06-08T15:05:21.568Z,63.70
2019-06-08T15:08:11.798Z,60.50
2019-06-08T15:11:01.838Z,60.60
2019-06-08T15:13:51.883Z,60.40
2019-06-08T15:16:42.012Z,60.90
2019-06-08T15:19:32.591Z,59.20
2019-06-08T15:22:22.367Z,60.50
2019-06-08T15:25:12.590Z,63.50
2019-06-08T15:28:02.970Z,61.00
2019-06-08T15:30:52.637Z,61.60
2019-06-08T15:33:43.708Z,59.90
2019-06-08T15:36:33.992Z,59.10
2019-06-08T15:39:28.464Z,59.00
2019-06-08T15:42:19.712Z,59.90
2019-06-08T15:45:10.052Z,59.10
2019-06-08T15:48:00.707Z,59.50
2019-06-08T15:50:50.477Z,59.80
2019-06-08T15:53:40.656Z,58.50
2019-06-08T15:56:43.182Z,58.40
2019-06-08T15:59:23.167Z,59.70
2019-06-08T16:02:13.832Z,59.90
2019-06-08T16:05:04.074Z,57.70
2019-06-08T16:07:54.327Z,59.60
2019-06-08T16:10:44.562Z,58.90
2019-06-08T16:13:34.764Z,58.40
2019-06-08T16:16:25.340Z,58.60
2019-06-08T16:19:15.872Z,59.00
2019-06-08T16:22:06.792Z,57.80
2019-06-08T16:24:56.705Z,57.00
2019-06-08T16:27:46.972Z,56.50
2019-06-08T16:30:36.685Z,55.60
2019-06-08T16:33:29.255Z,55.10
2019-06-08T16:36:18.198Z,55.30
2019-06-08T16:39:09.511Z,55.50
2019-06-08T16:41:59.342Z,55.10
2019-06-08T16:44:50.219Z,54.80
2019-06-08T16:47:43.071Z,55.80
2019-06-08T16:50:32.294Z,55.80
2019-06-08T16:53:23.097Z,56.80
2019-06-08T16:56:14.271Z,56.00
2019-06-08T16:59:04.287Z,56.20
2019-06-08T17:01:54.637Z,55.60
2019-06-08T17:04:45.217Z,54.90
2019-06-08T17:07:35.586Z,55.40
2019-06-08T17:10:25.076Z,55.30
2019-06-08T17:13:18.006Z,55.80
2019-06-08T17:16:10.629Z,55.90
2019-06-08T17:19:00.620Z,55.70
2019-06-08T17:21:50.989Z,56.90
2019-06-08T17:24:40.890Z,57.10
2019-06-08T17:27:30.826Z,57.50
2019-06-08T17:30:21.847Z,58.60
2019-06-08T17:33:12.216Z,60.10
2019-06-08T17:36:02.505Z,62.70
2019-06-08T17:38:52.270Z,63.10
2019-06-08T17:41:42.685Z,63.30
2019-06-08T17:44:34.863Z,64.20
2019-06-08T17:47:26.794Z,63.80
2019-06-08T17:50:18.158Z,64.60
2019-06-08T17:53:09.253Z,65.80
2019-06-08T17:55:59.132Z,67.70
2019-06-08T17:58:49.526Z,69.10
2019-06-08T18:01:39.913Z,70.30
2019-06-08T18:04:30.594Z,72.30
2019-06-08T18:07:20.397Z,73.50
2019-06-08T18:10:12.271Z,74.00
2019-06-08T18:13:01.971Z,74.80
2019-06-08T18:15:53.032Z,75.50
2019-06-08T18:18:45.103Z,76.60
2019-06-08T18:21:38.823Z,76.30
2019-06-08T18:24:27.997Z,76.40
2019-06-08T18:27:18.576Z,77.10
2019-06-08T18:30:11.832Z,78.20
2019-06-08T18:33:00.893Z,78.50
2019-06-08T18:35:51.003Z,78.80
2019-06-08T18:38:42.957Z,79.30
2019-06-08T18:41:33.325Z,79.50
2019-06-08T18:44:23.645Z,80.30
2019-06-08T18:47:14.312Z,81.40
2019-06-08T18:50:04.957Z,83.30
2019-06-08T18:52:57.973Z,83.50
2019-06-08T18:55:50.001Z,83.50
2019-06-08T18:58:39.718Z,84.10
2019-06-08T19:01:29.661Z,84.60
2019-06-08T19:04:19.919Z,85.80
2019-06-08T19:07:09.368Z,85.80
2019-06-08T19:10:01.818Z,87.30
2019-06-08T19:13:00.966Z,87.60
2019-06-08T19:15:53.045Z,89.10
2019-06-08T19:18:48.052Z,90.00
2019-06-08T19:21:37.536Z,90.60
2019-06-08T19:24:29.323Z,90.90
2019-06-08T19:27:22.274Z,91.30
2019-06-08T19:30:12.300Z,91.70
2019-06-08T19:33:02.136Z,92.00
2019-06-08T19:35:53.883Z,92.60
2019-06-08T19:38:44.637Z,93.20
2019-06-08T19:41:37.635Z,94.10
2019-06-08T19:44:27.911Z,94.40
2019-06-08T19:47:18.826Z,94.70
2019-06-08T19:50:09.817Z,95.50
2019-06-08T19:52:59.642Z,96.10
2019-06-08T19:55:53.932Z,96.70
2019-06-08T19:58:55.056Z,97.30
2019-06-08T20:01:34.472Z,98.00
2019-06-08T20:04:24.392Z,98.60
2019-06-08T20:07:17.820Z,99.40
2019-06-08T20:10:09.461Z,99.90
2019-06-08T20:12:59.639Z,99.90
2019-06-08T20:15:55.116Z,99.90
2019-06-08T20:18:43.567Z,99.90
2019-06-08T20:21:33.432Z,99.90
2019-06-08T20:24:24.618Z,99.90
2019-06-08T20:27:17.222Z,99.90
2019-06-08T20:30:12.026Z,99.90
2019-06-08T20:33:00.548Z,99.90
2019-06-08T20:35:51.911Z,99.90
2019-06-08T20:38:44.779Z,99.90
2019-06-08T20:41:37.452Z,99.90
2019-06-08T20:44:29.916Z,99.90
2019-06-08T20:47:20.660Z,99.90
2019-06-08T20:50:12.241Z,99.90
2019-06-08T20:53:02.797Z,99.90
2019-06-08T20:55:54.018Z,99.90
2019-06-08T20:58:45.379Z,99.90
2019-06-08T21:01:37.037Z,99.90
2019-06-08T21:04:27.645Z,99.90
2019-06-08T21:07:18.802Z,99.90
2019-06-08T21:10:10.331Z,99.90
2019-06-08T21:13:00.686Z,99.90
2019-06-08T21:15:55.715Z,99.90
2019-06-08T21:18:44.689Z,99.90
2019-06-08T21:21:37.555Z,99.90
2019-06-08T21:24:28.093Z,99.90
2019-06-08T21:27:18.330Z,99.90
2019-06-08T21:30:20.680Z,99.90
2019-06-08T21:33:01.044Z,99.90
2019-06-08T21:35:52.889Z,99.90
2019-06-08T21:38:42.640Z,99.90
2019-06-08T21:41:32.531Z,99.90
2019-06-08T21:44:22.481Z,99.90
2019-06-08T21:47:15.266Z,99.90
2019-06-08T21:50:11.605Z,99.90
2019-06-08T21:53:01.512Z,99.90
2019-06-08T21:55:52.100Z,99.90
2019-06-08T21:58:43.292Z,99.90
2019-06-08T22:01:33.863Z,99.90
2019-06-08T22:04:24.740Z,99.90
2019-06-08T22:07:14.992Z,99.90
2019-06-08T22:10:07.489Z,99.90
2019-06-08T22:13:00.936Z,99.90
2019-06-08T22:15:51.520Z,99.90
2019-06-08T22:18:41.156Z,99.90
2019-06-08T22:21:31.633Z,99.90
2019-06-08T22:24:21.416Z,99.90
2019-06-08T22:27:11.431Z,99.90
2019-06-08T22:30:09.562Z,99.90
2019-06-08T22:32:53.881Z,99.90
2019-06-08T22:35:44.246Z,99.90
2019-06-08T22:38:37.167Z,99.90
2019-06-08T22:41:27.953Z,99.90
2019-06-08T22:44:17.801Z,99.90
2019-06-08T22:47:08.240Z,99.90
2019-06-08T22:50:00.256Z,99.90
2019-06-08T22:52:51.287Z,99.90
2019-06-08T22:55:41.556Z,99.90
2019-06-08T22:58:31.751Z,99.90
2019-06-08T23:01:22.034Z,99.90
2019-06-08T23:04:12.056Z,99.90
2019-06-08T23:07:06.138Z,99.90
2019-06-08T23:09:59.243Z,99.90
2019-06-08T23:12:47.166Z,99.90
2019-06-08T23:15:38.075Z,99.90
2019-06-08T23:18:27.788Z,99.90
2019-06-08T23:21:18.045Z,99.90
2019-06-08T23:24:08.518Z,99.90
2019-06-08T23:26:58.631Z,99.90
2019-06-08T23:29:48.041Z,99.90
2019-06-08T23:32:38.765Z,99.90
2019-06-08T23:35:28.526Z,99.90
2019-06-08T23:38:17.996Z,99.90
2019-06-08T23:41:10.155Z,99.90
2019-06-08T23:44:00.007Z,99.90
2019-06-08T23:46:51.432Z,99.90
2019-06-08T23:49:41.544Z,99.90
2019-06-08T23:52:30.913Z,99.90
2019-06-08T23:55:21.032Z,99.90
2019-06-08T23:58:11.449Z,99.90
